Time;durP1;ratioP1;P1;durP2;ratioP2;P2;SDS_P1;SDS_P2;PMS_P1;PMS_P2;Temp;Humidity;BMP_temperature;BMP_pressure;BME280_temperature;BME280_humidity;BME280_pressure;Samples;Min_cycle;Max_cycle;Signal;HPM_P1;HPM_P2
2022/11/25 00:00:14;;;;;;;14.68;3.83;;;;;;;;;;5048000;28;20488;-66
2022/11/25 00:02:43;;;;;;;18.73;3.83;;;;;;;;;;5048040;28;20045;-66
2022/11/25 00:05:09;;;;;;;22.23;4.97;;;;;;;;;;5028652;28;20052;-66
2022/11/25 00:07:35;;;;;;;20.75;4.18;;;;;;;;;;5048467;28;20085;-66
2022/11/25 00:10:02;;;;;;;26.00;4.28;;;;;;;;;;5046386;28;21611;-66
2022/11/25 00:12:28;;;;;;;23.27;4.55;;;;;;;;;;5048532;28;20382;-65
2022/11/25 00:14:54;;;;;;;17.73;3.83;;;;;;;;;;5046209;28;20164;-66
2022/11/25 00:17:20;;;;;;;16.27;3.97;;;;;;;;;;5048033;28;20037;-66
2022/11/25 00:19:47;;;;;;;19.35;3.65;;;;;;;;;;5047926;28;20471;-66
2022/11/25 00:22:14;;;;;;;20.88;4.22;;;;;;;;;;5047247;28;20060;-65
2022/11/25 00:24:40;;;;;;;22.55;4.32;;;;;;;;;;5029500;28;20066;-66
2022/11/25 00:27:06;;;;;;;16.10;4.13;;;;;;;;;;5030605;28;20183;-66
2022/11/25 00:29:33;;;;;;;21.75;4.15;;;;;;;;;;5033329;28;20140;-66
2022/11/25 00:31:59;;;;;;;21.48;4.90;;;;;;;;;;5046933;28;20045;-66
2022/11/25 00:34:25;;;;;;;16.65;3.38;;;;;;;;;;5050759;28;20154;-65
2022/11/25 00:36:52;;;;;;;19.95;4.22;;;;;;;;;;5046595;28;20369;-66
2022/11/25 00:39:18;;;;;;;18.98;3.67;;;;;;;;;;5032725;28;20163;-66
2022/11/25 00:44:34;;;;;;;23.50;4.30;;;;;;;;;;5029676;28;20048;-66
2022/11/25 00:47:03;;;;;;;21.80;5.10;;;;;;;;;;5047458;28;20739;-66
2022/11/25 00:49:29;;;;;;;20.92;3.83;;;;;;;;;;5047473;28;20044;-66
2022/11/25 00:51:55;;;;;;;23.30;4.55;;;;;;;;;;5048365;28;20061;-66
2022/11/25 00:54:21;;;;;;;29.90;6.00;;;;;;;;;;5045422;28;20048;-66
2022/11/25 00:56:47;;;;;;;28.50;4.60;;;;;;;;;;5045545;28;20049;-66
2022/11/25 00:59:13;;;;;;;18.02;3.65;;;;;;;;;;5030453;28;20053;-65
2022/11/25 01:01:40;;;;;;;19.73;4.13;;;;;;;;;;5047287;28;20051;-66
2022/11/25 01:04:06;;;;;;;20.25;4.00;;;;;;;;;;5026568;28;20094;-66
2022/11/25 01:06:33;;;;;;;18.80;3.63;;;;;;;;;;5032355;28;20144;-66
2022/11/25 01:09:00;;;;;;;24.02;3.75;;;;;;;;;;5046694;28;20048;-66
2022/11/25 01:11:26;;;;;;;19.90;4.22;;;;;;;;;;5051794;28;20036;-66
2022/11/25 01:13:55;;;;;;;20.42;4.38;;;;;;;;;;5032343;28;20132;-66
2022/11/25 01:16:21;;;;;;;20.50;4.05;;;;;;;;;;5049053;28;20428;-66
2022/11/25 01:18:49;;;;;;;24.73;4.18;;;;;;;;;;5034125;28;20428;-66
2022/11/25 01:21:17;;;;;;;24.17;3.58;;;;;;;;;;5049845;28;20058;-66
2022/11/25 01:23:44;;;;;;;18.92;3.45;;;;;;;;;;5049678;28;20055;-66
2022/11/25 01:26:11;;;;;;;13.57;3.20;;;;;;;;;;5032078;28;20045;-66
2022/11/25 01:28:38;;;;;;;23.75;4.82;;;;;;;;;;5051418;28;20052;-66
2022/11/25 01:31:06;;;;;;;20.73;4.03;;;;;;;;;;5047856;28;20064;-67
2022/11/25 01:33:33;;;;;;;26.27;4.85;;;;;;;;;;5050447;28;20085;-67
2022/11/25 01:36:01;;;;;;;17.52;4.28;;;;;;;;;;5046765;28;20040;-66
2022/11/25 01:38:28;;;;;;;19.63;3.75;;;;;;;;;;5050400;28;20055;-66
2022/11/25 01:40:54;;;;;;;16.92;3.72;;;;;;;;;;5036714;28;20048;-66
2022/11/25 01:43:20;;;;;;;21.30;4.38;;;;;;;;;;5049512;28;20053;-67
2022/11/25 01:45:46;;;;;;;18.48;4.20;;;;;;;;;;5030564;28;20567;-67
2022/11/25 01:48:16;;;;;;;23.55;4.10;;;;;;;;;;5056904;28;20033;-66
2022/11/25 01:50:43;;;;;;;20.90;4.03;;;;;;;;;;5051142;28;20484;-65
2022/11/25 01:53:11;;;;;;;20.35;4.70;;;;;;;;;;5049140;28;20459;-66
2022/11/25 01:55:40;;;;;;;20.90;4.72;;;;;;;;;;5030712;28;20068;-65
2022/11/25 01:58:08;;;;;;;20.73;4.47;;;;;;;;;;5050648;28;21680;-66
2022/11/25 02:00:34;;;;;;;23.20;4.70;;;;;;;;;;5047615;28;20503;-65
2022/11/25 02:03:01;;;;;;;29.58;5.05;;;;;;;;;;5034623;28;20059;-65
2022/11/25 02:05:37;;;;;;;25.40;5.18;;;;;;;;;;5029723;28;20048;-65
2022/11/25 02:08:03;;;;;;;28.02;4.35;;;;;;;;;;5028986;28;20151;-65
2022/11/25 02:10:31;;;;;;;25.10;5.13;;;;;;;;;;5031445;28;20048;-65
2022/11/25 02:12:58;;;;;;;25.05;4.40;;;;;;;;;;5051396;28;20048;-65
2022/11/25 02:15:24;;;;;;;28.02;4.32;;;;;;;;;;5050022;28;20049;-65
2022/11/25 02:17:50;;;;;;;27.85;5.05;;;;;;;;;;5047525;28;20124;-65
2022/11/25 02:20:17;;;;;;;29.38;6.03;;;;;;;;;;5030524;28;20045;-65
2022/11/25 02:22:48;;;;;;;23.80;5.10;;;;;;;;;;5053440;28;20060;-65
2022/11/25 02:25:23;;;;;;;26.90;4.75;;;;;;;;;;5048686;28;20568;-65
2022/11/25 02:27:58;;;;;;;20.48;4.07;;;;;;;;;;5048350;28;20041;-65
2022/11/25 02:30:24;;;;;;;31.13;5.07;;;;;;;;;;5054149;28;20076;-65
2022/11/25 02:32:50;;;;;;;39.47;4.78;;;;;;;;;;5052353;28;20043;-65
2022/11/25 02:35:22;;;;;;;23.85;4.32;;;;;;;;;;5048419;28;20475;-66
2022/11/25 02:37:48;;;;;;;29.15;4.68;;;;;;;;;;5050138;28;20049;-65
2022/11/25 02:40:15;;;;;;;26.80;5.95;;;;;;;;;;5050960;28;20052;-65
2022/11/25 02:42:41;;;;;;;26.52;5.43;;;;;;;;;;5055207;28;20041;-65
2022/11/25 02:45:10;;;;;;;28.30;5.72;;;;;;;;;;5049311;28;20033;-65
2022/11/25 02:47:37;;;;;;;25.05;5.07;;;;;;;;;;5050533;28;20076;-65
2022/11/25 02:50:03;;;;;;;41.97;6.68;;;;;;;;;;5056849;28;20054;-65
2022/11/25 02:52:29;;;;;;;27.67;6.65;;;;;;;;;;5046731;28;20179;-66
2022/11/25 02:54:55;;;;;;;29.75;5.80;;;;;;;;;;5078387;28;20055;-65
2022/11/25 02:57:21;;;;;;;32.88;6.55;;;;;;;;;;5074573;28;20084;-65
2022/11/25 02:59:47;;;;;;;26.27;6.60;;;;;;;;;;5071693;28;20044;-65
2022/11/25 03:02:14;;;;;;;24.63;6.75;;;;;;;;;;5071350;28;20082;-66
2022/11/25 03:04:40;;;;;;;29.83;5.57;;;;;;;;;;5068901;28;20036;-65
2022/11/25 03:07:06;;;;;;;24.75;6.28;;;;;;;;;;5070417;28;20089;-65
2022/11/25 03:09:33;;;;;;;26.40;6.40;;;;;;;;;;5069711;28;20047;-65
2022/11/25 03:14:44;;;;;;;20.20;6.63;;;;;;;;;;5069920;28;20090;-65
2022/11/25 03:17:10;;;;;;;26.08;7.78;;;;;;;;;;5070020;28;20062;-65
2022/11/25 03:19:36;;;;;;;29.70;6.47;;;;;;;;;;5050740;28;20040;-65
2022/11/25 03:22:02;;;;;;;33.42;7.93;;;;;;;;;;5049137;28;20071;-65
2022/11/25 03:24:28;;;;;;;33.08;7.90;;;;;;;;;;5053061;28;20055;-65
2022/11/25 03:26:55;;;;;;;29.48;7.65;;;;;;;;;;5068051;28;20055;-65
2022/11/25 03:29:21;;;;;;;32.22;8.10;;;;;;;;;;5047130;28;20193;-66
2022/11/25 03:31:47;;;;;;;29.95;7.70;;;;;;;;;;5066870;28;20086;-65
2022/11/25 03:34:13;;;;;;;30.27;7.75;;;;;;;;;;5068237;28;20032;-65
2022/11/25 03:36:39;;;;;;;29.10;7.47;;;;;;;;;;5068886;28;20476;-65
2022/11/25 03:39:05;;;;;;;34.17;7.78;;;;;;;;;;5052588;28;20071;-66
2022/11/25 03:41:31;;;;;;;26.77;6.53;;;;;;;;;;5070712;28;20063;-65
2022/11/25 03:43:58;;;;;;;23.48;7.47;;;;;;;;;;5069793;28;20044;-65
2022/11/25 03:46:24;;;;;;;26.52;7.78;;;;;;;;;;5047803;28;20040;-65
2022/11/25 03:48:50;;;;;;;26.30;8.32;;;;;;;;;;5065444;28;20476;-65
2022/11/25 03:51:16;;;;;;;25.08;7.05;;;;;;;;;;5047209;28;20053;-65
2022/11/25 03:53:42;;;;;;;28.92;6.97;;;;;;;;;;5046598;28;20159;-66
2022/11/25 03:56:09;;;;;;;25.95;7.18;;;;;;;;;;5028924;28;20138;-66
2022/11/25 03:58:35;;;;;;;27.30;6.95;;;;;;;;;;5049663;28;20459;-65
2022/11/25 04:01:01;;;;;;;23.88;6.50;;;;;;;;;;5046895;28;20094;-65
2022/11/25 04:03:28;;;;;;;24.13;7.25;;;;;;;;;;5046189;28;20127;-65
2022/11/25 04:05:54;;;;;;;33.47;7.22;;;;;;;;;;5025402;28;20051;-65
2022/11/25 04:08:21;;;;;;;32.22;7.60;;;;;;;;;;5049984;28;20040;-65
2022/11/25 04:10:49;;;;;;;25.98;7.80;;;;;;;;;;5048588;28;20135;-65
2022/11/25 04:13:15;;;;;;;27.92;7.32;;;;;;;;;;5048542;28;20048;-65
2022/11/25 04:15:46;;;;;;;27.48;7.40;;;;;;;;;;5043254;28;20071;-66
2022/11/25 04:18:12;;;;;;;29.80;7.50;;;;;;;;;;5049671;28;20178;-65
2022/11/25 04:20:38;;;;;;;30.17;7.45;;;;;;;;;;5049803;28;20052;-65
2022/11/25 04:23:05;;;;;;;24.77;7.90;;;;;;;;;;5047150;28;20052;-65
2022/11/25 04:25:31;;;;;;;26.85;8.32;;;;;;;;;;5046748;28;20048;-66
2022/11/25 04:27:58;;;;;;;27.02;8.15;;;;;;;;;;5049532;28;20109;-65
2022/11/25 04:30:24;;;;;;;27.27;8.77;;;;;;;;;;5050449;28;20045;-65
2022/11/25 04:32:50;;;;;;;25.00;9.00;;;;;;;;;;5045679;28;20103;-65
2022/11/25 04:35:16;;;;;;;29.70;9.93;;;;;;;;;;5046430;28;20511;-66
2022/11/25 04:37:43;;;;;;;33.95;10.63;;;;;;;;;;5049025;28;20211;-65
2022/11/25 04:40:09;;;;;;;33.85;10.85;;;;;;;;;;5048028;28;20033;-65
2022/11/25 04:42:37;;;;;;;35.13;10.32;;;;;;;;;;5050731;28;20432;-65
2022/11/25 04:45:07;;;;;;;31.10;10.13;;;;;;;;;;5051288;28;20404;-65
2022/11/25 04:47:33;;;;;;;34.20;10.82;;;;;;;;;;5051659;28;21075;-65
2022/11/25 04:49:59;;;;;;;30.42;10.18;;;;;;;;;;5052044;28;20397;-65
2022/11/25 04:52:25;;;;;;;32.65;10.00;;;;;;;;;;5066460;28;20571;-65
2022/11/25 04:54:52;;;;;;;34.28;10.80;;;;;;;;;;5071401;28;20040;-65
2022/11/25 04:57:18;;;;;;;33.72;11.30;;;;;;;;;;5073283;28;20172;-65
2022/11/25 04:59:44;;;;;;;36.83;10.70;;;;;;;;;;5055964;28;20048;-65
2022/11/25 05:02:13;;;;;;;39.17;9.88;;;;;;;;;;5074131;28;20047;-65
2022/11/25 05:04:41;;;;;;;35.40;10.57;;;;;;;;;;5073150;28;20076;-65
2022/11/25 05:07:07;;;;;;;35.40;10.13;;;;;;;;;;5073298;28;20036;-65
2022/11/25 05:09:33;;;;;;;39.92;10.07;;;;;;;;;;5075737;28;20055;-66
2022/11/25 05:12:00;;;;;;;28.38;8.60;;;;;;;;;;5071850;28;20068;-65
2022/11/25 05:14:26;;;;;;;37.65;10.65;;;;;;;;;;5074005;28;20041;-65
2022/11/25 05:16:52;;;;;;;33.10;9.70;;;;;;;;;;5071034;28;20043;-65
2022/11/25 05:19:18;;;;;;;29.45;9.65;;;;;;;;;;5072741;28;20127;-65
2022/11/25 05:21:45;;;;;;;37.03;10.98;;;;;;;;;;5053284;28;20041;-65
2022/11/25 05:24:11;;;;;;;31.45;9.15;;;;;;;;;;5068621;28;20040;-65
2022/11/25 05:26:37;;;;;;;35.75;9.43;;;;;;;;;;5051545;28;20384;-66
2022/11/25 05:29:03;;;;;;;34.58;10.38;;;;;;;;;;5071913;28;20513;-65
2022/11/25 05:31:29;;;;;;;40.95;10.18;;;;;;;;;;5071393;28;20056;-66
2022/11/25 05:33:56;;;;;;;27.25;9.30;;;;;;;;;;5070061;28;20374;-65
2022/11/25 05:36:22;;;;;;;30.65;9.80;;;;;;;;;;5051229;28;20504;-65
2022/11/25 05:38:48;;;;;;;30.58;9.02;;;;;;;;;;5073474;28;20063;-65
2022/11/25 05:41:14;;;;;;;39.88;9.10;;;;;;;;;;5073644;28;21580;-66
2022/11/25 05:43:41;;;;;;;35.50;9.38;;;;;;;;;;5071137;28;20047;-66
2022/11/25 05:46:08;;;;;;;32.80;10.23;;;;;;;;;;5073438;28;20036;-66
2022/11/25 05:48:34;;;;;;;30.00;8.93;;;;;;;;;;5073010;28;20044;-66
2022/11/25 05:51:00;;;;;;;35.35;9.07;;;;;;;;;;5067867;28;20743;-65
2022/11/25 05:53:27;;;;;;;33.05;9.55;;;;;;;;;;5072405;28;20044;-66
2022/11/25 05:55:55;;;;;;;32.30;9.07;;;;;;;;;;5057302;28;20063;-66
2022/11/25 05:58:21;;;;;;;35.15;9.18;;;;;;;;;;5072898;28;20048;-66
2022/11/25 06:00:47;;;;;;;40.40;8.95;;;;;;;;;;5074574;28;20067;-66
2022/11/25 06:03:13;;;;;;;30.85;9.63;;;;;;;;;;5073885;28;20102;-64
2022/11/25 06:05:40;;;;;;;35.20;10.27;;;;;;;;;;5057973;28;20097;-65
2022/11/25 06:08:06;;;;;;;28.55;9.05;;;;;;;;;;5079334;28;20044;-66
2022/11/25 06:10:33;;;;;;;29.42;9.45;;;;;;;;;;5078162;28;20511;-66
2022/11/25 06:12:59;;;;;;;29.15;8.63;;;;;;;;;;5056878;28;20039;-65
2022/11/25 06:15:25;;;;;;;26.52;9.70;;;;;;;;;;5058024;28;20114;-66
2022/11/25 06:17:51;;;;;;;20.23;8.27;;;;;;;;;;5075285;28;20053;-66
2022/11/25 06:20:17;;;;;;;28.23;9.68;;;;;;;;;;5075436;28;20088;-66
2022/11/25 06:22:43;;;;;;;28.63;9.18;;;;;;;;;;5055272;28;20138;-66
2022/11/25 06:25:09;;;;;;;26.25;8.88;;;;;;;;;;5076554;28;20058;-66
2022/11/25 06:27:36;;;;;;;27.38;9.27;;;;;;;;;;5075386;28;20048;-67
2022/11/25 06:30:02;;;;;;;36.25;9.32;;;;;;;;;;5053260;28;20441;-66
2022/11/25 06:32:28;;;;;;;30.30;9.75;;;;;;;;;;5074439;28;20119;-66
2022/11/25 06:34:54;;;;;;;31.73;9.50;;;;;;;;;;5059738;28;20075;-65
2022/11/25 06:37:21;;;;;;;37.45;10.00;;;;;;;;;;5075028;28;20044;-65
2022/11/25 06:39:47;;;;;;;30.55;9.52;;;;;;;;;;5080156;28;20036;-65
2022/11/25 06:42:13;;;;;;;31.55;9.02;;;;;;;;;;5080099;28;20058;-65
2022/11/25 06:44:39;;;;;;;33.22;9.23;;;;;;;;;;5064983;28;20147;-66
2022/11/25 06:47:05;;;;;;;26.58;8.85;;;;;;;;;;5085122;28;20043;-66
2022/11/25 06:49:31;;;;;;;26.10;8.13;;;;;;;;;;5059548;28;20037;-66
2022/11/25 06:51:58;;;;;;;25.48;8.05;;;;;;;;;;5060232;28;20068;-66
2022/11/25 06:54:24;;;;;;;32.25;9.02;;;;;;;;;;5076676;28;20040;-65
2022/11/25 06:56:52;;;;;;;31.63;9.05;;;;;;;;;;5075099;28;20541;-66
2022/11/25 06:59:20;;;;;;;34.33;10.23;;;;;;;;;;5073508;28;20044;-66
2022/11/25 07:01:46;;;;;;;30.75;8.80;;;;;;;;;;5057400;28;20117;-65
2022/11/25 07:04:12;;;;;;;39.25;9.27;;;;;;;;;;5073163;28;20744;-65
2022/11/25 07:06:39;;;;;;;29.33;9.60;;;;;;;;;;5056156;28;20091;-74
2022/11/25 07:09:05;;;;;;;34.38;9.48;;;;;;;;;;5055912;28;20037;-65
2022/11/25 07:11:32;;;;;;;34.95;9.50;;;;;;;;;;5078168;28;20052;-67
2022/11/25 07:13:59;;;;;;;40.88;9.82;;;;;;;;;;5058719;28;20040;-66
2022/11/25 07:16:26;;;;;;;32.05;9.73;;;;;;;;;;5084273;28;20106;-68
2022/11/25 07:18:52;;;;;;;31.70;9.50;;;;;;;;;;5081220;28;20051;-65
2022/11/25 07:21:20;;;;;;;38.65;10.55;;;;;;;;;;5084347;28;20046;-66
2022/11/25 07:23:46;;;;;;;28.55;9.30;;;;;;;;;;5081195;28;20447;-66
2022/11/25 07:26:14;;;;;;;30.67;9.85;;;;;;;;;;5064211;28;21625;-65
2022/11/25 07:28:41;;;;;;;32.25;9.93;;;;;;;;;;5064027;28;20097;-65
2022/11/25 07:31:08;;;;;;;28.05;9.90;;;;;;;;;;5058177;28;21726;-65
2022/11/25 07:33:35;;;;;;;31.38;10.20;;;;;;;;;;5080082;28;20048;-65
2022/11/25 07:36:02;;;;;;;35.20;10.25;;;;;;;;;;5058029;28;20563;-65
2022/11/25 07:38:28;;;;;;;43.83;10.13;;;;;;;;;;5065598;28;20068;-65
2022/11/25 07:40:54;;;;;;;32.13;9.98;;;;;;;;;;5082494;28;20036;-65
2022/11/25 07:43:21;;;;;;;29.52;9.98;;;;;;;;;;5048579;28;20040;-64
2022/11/25 07:45:47;;;;;;;30.10;9.75;;;;;;;;;;5087960;28;20044;-65
2022/11/25 07:48:13;;;;;;;28.20;9.88;;;;;;;;;;5092140;28;20051;-64
2022/11/25 07:50:39;;;;;;;36.28;10.00;;;;;;;;;;5091609;28;20051;-64
2022/11/25 07:53:06;;;;;;;24.02;9.50;;;;;;;;;;5061740;28;20052;-65
2022/11/25 07:55:32;;;;;;;25.27;8.88;;;;;;;;;;5049551;28;20047;-65
2022/11/25 07:57:58;;;;;;;30.90;9.15;;;;;;;;;;5091405;28;20449;-65
2022/11/25 08:00:24;;;;;;;32.17;9.63;;;;;;;;;;5091316;28;20364;-65
2022/11/25 08:02:51;;;;;;;29.77;9.85;;;;;;;;;;5091187;28;20133;-65
2022/11/25 08:05:17;;;;;;;36.95;9.88;;;;;;;;;;5092350;28;20112;-65
2022/11/25 08:07:44;;;;;;;31.40;9.23;;;;;;;;;;5077845;28;20041;-64
2022/11/25 08:10:10;;;;;;;22.77;9.27;;;;;;;;;;5041174;28;20150;-65
2022/11/25 08:12:36;;;;;;;24.20;9.60;;;;;;;;;;5079345;28;20036;-65
2022/11/25 08:15:02;;;;;;;29.77;9.40;;;;;;;;;;5061957;28;20059;-64
2022/11/25 08:17:28;;;;;;;28.55;9.70;;;;;;;;;;5057991;28;20168;-65
2022/11/25 08:19:55;;;;;;;30.63;10.23;;;;;;;;;;5055997;28;20512;-66
2022/11/25 08:22:21;;;;;;;29.15;10.07;;;;;;;;;;5085968;28;20094;-65
2022/11/25 08:24:47;;;;;;;24.85;9.13;;;;;;;;;;5064781;28;20131;-67
2022/11/25 08:27:13;;;;;;;22.92;8.90;;;;;;;;;;5063341;28;20049;-66
2022/11/25 08:29:39;;;;;;;26.05;10.00;;;;;;;;;;5086174;28;20051;-66
2022/11/25 08:32:07;;;;;;;25.02;9.45;;;;;;;;;;5063395;28;20044;-66
2022/11/25 08:34:33;;;;;;;25.42;9.18;;;;;;;;;;5065407;28;20450;-67
2022/11/25 08:37:00;;;;;;;31.25;10.18;;;;;;;;;;5059852;28;20048;-66
2022/11/25 08:39:26;;;;;;;29.30;9.70;;;;;;;;;;5064732;28;20182;-65
2022/11/25 08:41:52;;;;;;;20.80;9.20;;;;;;;;;;5058393;28;20383;-66
2022/11/25 08:44:18;;;;;;;24.73;9.07;;;;;;;;;;5063087;28;20403;-66
2022/11/25 08:46:44;;;;;;;24.95;9.70;;;;;;;;;;5063430;28;20043;-66
2022/11/25 08:49:11;;;;;;;20.95;8.90;;;;;;;;;;5079649;28;20044;-66
2022/11/25 08:51:38;;;;;;;22.77;8.48;;;;;;;;;;5073893;28;20060;-66
2022/11/25 08:54:05;;;;;;;27.52;8.15;;;;;;;;;;5057420;28;20047;-66
2022/11/25 08:56:32;;;;;;;24.80;9.00;;;;;;;;;;5055377;28;20132;-66
2022/11/25 08:58:59;;;;;;;29.30;10.57;;;;;;;;;;5055079;28;20040;-66
2022/11/25 09:01:25;;;;;;;26.65;8.43;;;;;;;;;;5077237;28;20519;-66
2022/11/25 09:03:54;;;;;;;21.75;8.85;;;;;;;;;;5065329;28;20048;-66
2022/11/25 09:06:20;;;;;;;23.70;8.15;;;;;;;;;;5054719;28;20190;-66
2022/11/25 09:08:47;;;;;;;31.25;8.57;;;;;;;;;;5073805;28;20040;-66
2022/11/25 09:11:13;;;;;;;24.45;7.93;;;;;;;;;;5074600;28;20063;-66
2022/11/25 09:13:39;;;;;;;15.40;7.35;;;;;;;;;;5072539;28;20089;-66
2022/11/25 09:16:06;;;;;;;22.27;7.95;;;;;;;;;;5073249;28;20479;-66
2022/11/25 09:18:34;;;;;;;16.40;7.47;;;;;;;;;;5075722;28;20056;-66
2022/11/25 09:21:06;;;;;;;22.05;7.03;;;;;;;;;;5061345;28;20041;-66
2022/11/25 09:23:32;;;;;;;19.77;7.38;;;;;;;;;;5076149;28;20045;-66
2022/11/25 09:25:58;;;;;;;15.35;6.97;;;;;;;;;;5056802;28;20041;-66
2022/11/25 09:28:25;;;;;;;28.05;8.85;;;;;;;;;;5071711;28;20069;-66
2022/11/25 09:30:51;;;;;;;16.20;7.72;;;;;;;;;;5075374;28;20136;-66
2022/11/25 09:33:18;;;;;;;17.35;7.43;;;;;;;;;;5073625;28;20476;-66
2022/11/25 09:35:44;;;;;;;18.52;6.80;;;;;;;;;;5057995;28;20147;-66
2022/11/25 09:38:11;;;;;;;16.63;7.05;;;;;;;;;;5073998;28;20044;-66
2022/11/25 09:40:45;;;;;;;18.88;6.47;;;;;;;;;;5075530;28;20033;-66
2022/11/25 09:46:41;;;;;;;17.45;5.90;;;;;;;;;;5061028;28;20083;-66
2022/11/25 09:49:23;;;;;;;19.60;6.20;;;;;;;;;;5072425;28;20040;-66
2022/11/25 09:51:58;;;;;;;15.23;5.95;;;;;;;;;;5056871;28;20048;-66
2022/11/25 09:54:29;;;;;;;14.68;5.10;;;;;;;;;;5057089;28;20044;-66
2022/11/25 09:57:00;;;;;;;14.73;5.10;;;;;;;;;;5057891;28;20136;-66
2022/11/25 09:59:34;;;;;;;15.20;5.65;;;;;;;;;;5052255;28;20045;-66
2022/11/25 10:02:02;;;;;;;15.43;6.10;;;;;;;;;;5055713;28;20070;-66
2022/11/25 10:04:31;;;;;;;15.55;6.10;;;;;;;;;;5053514;28;20040;-66
2022/11/25 10:07:00;;;;;;;15.95;5.53;;;;;;;;;;5054466;28;20064;-66
2022/11/25 10:09:28;;;;;;;16.80;5.35;;;;;;;;;;5055126;28;20108;-66
2022/11/25 10:11:56;;;;;;;22.23;6.10;;;;;;;;;;5052698;28;20493;-66
2022/11/25 10:14:32;;;;;;;23.77;5.55;;;;;;;;;;5053609;28;20044;-66
2022/11/25 10:17:12;;;;;;;19.30;5.78;;;;;;;;;;5055922;28;20041;-66
2022/11/25 10:19:47;;;;;;;15.25;4.82;;;;;;;;;;5055092;28;20093;-66
2022/11/25 10:22:23;;;;;;;14.82;5.20;;;;;;;;;;5054182;28;20059;-66
2022/11/25 10:24:51;;;;;;;17.45;4.65;;;;;;;;;;5033002;28;20055;-66
2022/11/25 10:27:18;;;;;;;20.52;5.70;;;;;;;;;;5056502;28;20045;-66
2022/11/25 10:29:48;;;;;;;19.25;5.40;;;;;;;;;;5051719;28;20044;-66
2022/11/25 10:32:14;;;;;;;11.48;5.55;;;;;;;;;;5055762;28;20131;-66
2022/11/25 10:34:44;;;;;;;14.38;4.93;;;;;;;;;;5051443;28;20091;-66
2022/11/25 10:37:13;;;;;;;14.88;5.03;;;;;;;;;;5052551;28;20564;-66
2022/11/25 10:39:39;;;;;;;14.32;5.07;;;;;;;;;;5051321;28;20560;-66
2022/11/25 10:42:13;;;;;;;15.40;4.30;;;;;;;;;;5053650;28;20076;-66
2022/11/25 10:44:39;;;;;;;;;;;;;;;;;;5052234;28;20123;-66
2022/11/25 10:47:05;;;;;;;15.40;4.80;;;;;;;;;;5050590;28;20015;-66
2022/11/25 10:49:42;;;;;;;15.45;4.72;;;;;;;;;;5056158;28;20468;-66
2022/11/25 10:52:10;;;;;;;14.15;4.40;;;;;;;;;;5051708;28;20048;-66
2022/11/25 10:54:36;;;;;;;13.88;4.93;;;;;;;;;;5052369;28;20080;-66
2022/11/25 10:57:03;;;;;;;13.18;4.35;;;;;;;;;;5060323;28;20036;-66
2022/11/25 10:59:31;;;;;;;16.17;4.72;;;;;;;;;;5053566;28;20413;-66
2022/11/25 11:02:20;;;;;;;16.67;3.67;;;;;;;;;;5053709;28;20029;-66
2022/11/25 11:04:50;;;;;;;14.02;3.95;;;;;;;;;;5054802;28;20041;-65
2022/11/25 11:07:16;;;;;;;15.75;4.90;;;;;;;;;;5052553;28;20373;-65
2022/11/25 11:09:44;;;;;;;16.08;3.60;;;;;;;;;;5054728;28;20132;-65
2022/11/25 11:12:16;;;;;;;18.27;5.45;;;;;;;;;;5056532;28;20040;-66
2022/11/25 11:14:42;;;;;;;17.50;4.00;;;;;;;;;;5056491;28;20037;-66
2022/11/25 11:17:28;;;;;;;22.50;3.67;;;;;;;;;;5058994;28;20036;-66
2022/11/25 11:20:06;;;;;;;18.95;3.75;;;;;;;;;;5051738;28;20041;-66
2022/11/25 11:22:33;;;;;;;20.45;3.85;;;;;;;;;;5055653;28;20138;-66
2022/11/25 11:25:07;;;;;;;15.57;3.22;;;;;;;;;;5046348;28;20448;-65
2022/11/25 11:27:33;;;;;;;;;;;;;;;;;;5046565;28;20110;-66
2022/11/25 11:30:08;;;;;;;19.15;3.65;;;;;;;;;;5048951;28;20438;-65
2022/11/25 11:32:34;;;;;;;15.00;3.08;;;;;;;;;;5051451;28;20033;-65
2022/11/25 11:35:06;;;;;;;16.38;3.90;;;;;;;;;;5052463;28;20114;-65
2022/11/25 11:37:43;;;;;;;18.85;3.78;;;;;;;;;;5054466;28;20102;-65
2022/11/25 11:40:09;;;;;;;22.20;4.13;;;;;;;;;;5046781;28;20126;-65
2022/11/25 11:42:42;;;;;;;19.35;4.38;;;;;;;;;;5045502;28;20118;-65
2022/11/25 11:45:23;;;;;;;23.35;4.72;;;;;;;;;;5049983;28;20068;-65
2022/11/25 11:47:59;;;;;;;20.90;4.30;;;;;;;;;;5054914;28;20048;-65
2022/11/25 11:50:30;;;;;;;23.73;3.70;;;;;;;;;;5055656;28;20032;-65
2022/11/25 11:52:57;;;;;;;22.30;3.83;;;;;;;;;;5034044;28;20472;-65
2022/11/25 11:55:32;;;;;;;20.17;4.72;;;;;;;;;;5050891;28;20049;-65
2022/11/25 11:58:08;;;;;;;19.25;5.13;;;;;;;;;;5049991;28;20079;-66
2022/11/25 12:00:39;;;;;;;18.80;4.18;;;;;;;;;;5053132;28;20056;-66
2022/11/25 12:03:16;;;;;;;23.20;4.55;;;;;;;;;;5052476;28;21741;-66
2022/11/25 12:05:42;;;;;;;19.63;4.07;;;;;;;;;;5052695;28;20144;-66
2022/11/25 12:08:09;;;;;;;21.63;3.33;;;;;;;;;;5052305;28;20096;-69
2022/11/25 12:10:42;;;;;;;20.42;3.92;;;;;;;;;;5049126;28;20052;-65
2022/11/25 12:13:13;;;;;;;19.35;4.50;;;;;;;;;;5051397;28;20052;-66
2022/11/25 12:15:43;;;;;;;18.13;3.08;;;;;;;;;;5051292;28;20144;-66
2022/11/25 12:18:15;;;;;;;16.08;3.60;;;;;;;;;;5049983;28;21607;-65
2022/11/25 12:20:45;;;;;;;18.23;3.78;;;;;;;;;;5052521;28;20041;-66
2022/11/25 12:23:21;;;;;;;17.98;3.70;;;;;;;;;;5055048;28;20404;-65
2022/11/25 12:25:50;;;;;;;21.35;3.60;;;;;;;;;;5053816;28;20507;-66
2022/11/25 12:28:20;;;;;;;23.13;3.33;;;;;;;;;;5054664;28;20502;-66
2022/11/25 12:31:02;;;;;;;24.15;4.55;;;;;;;;;;5048523;28;20052;-67
2022/11/25 12:33:41;;;;;;;22.80;4.10;;;;;;;;;;5053440;28;20643;-67
2022/11/25 12:36:10;;;;;;;21.23;3.92;;;;;;;;;;5055013;28;20407;-66
2022/11/25 12:39:00;;;;;;;21.88;4.80;;;;;;;;;;5053923;28;20052;-66
2022/11/25 12:41:41;;;;;;;17.63;4.25;;;;;;;;;;5048658;28;20136;-66
2022/11/25 12:44:14;;;;;;;16.50;3.40;;;;;;;;;;5051623;28;20110;-67
2022/11/25 12:46:44;;;;;;;13.25;3.10;;;;;;;;;;5057622;28;20044;-66
2022/11/25 12:49:16;;;;;;;15.68;3.83;;;;;;;;;;5048950;28;20040;-66
2022/11/25 12:51:50;;;;;;;20.38;4.70;;;;;;;;;;5055059;28;20163;-80
2022/11/25 12:54:20;;;;;;;18.30;3.80;;;;;;;;;;5066834;28;20091;-66
2022/11/25 12:56:53;;;;;;;19.23;4.05;;;;;;;;;;5068590;28;20428;-66
2022/11/25 12:59:33;;;;;;;12.82;2.85;;;;;;;;;;5068250;28;20058;-74
2022/11/25 13:02:22;;;;;;;18.70;3.00;;;;;;;;;;5053125;28;20052;-66
2022/11/25 13:05:09;;;;;;;20.23;3.10;;;;;;;;;;5057984;28;20094;-66
2022/11/25 13:07:45;;;;;;;18.15;3.40;;;;;;;;;;5062840;28;20487;-66
2022/11/25 13:10:20;;;;;;;24.33;4.03;;;;;;;;;;5062981;28;20040;-66
2022/11/25 13:12:54;;;;;;;20.65;3.50;;;;;;;;;;5076891;28;20464;-66
2022/11/25 13:15:25;;;;;;;15.48;3.22;;;;;;;;;;5072516;28;20036;-66
2022/11/25 13:17:54;;;;;;;16.30;3.53;;;;;;;;;;5074832;28;20041;-66
2022/11/25 13:20:26;;;;;;;17.92;3.13;;;;;;;;;;5071240;28;20082;-65
2022/11/25 13:23:19;;;;;;;20.80;3.38;;;;;;;;;;5051422;28;20048;-66
2022/11/25 13:25:46;;;;;;;17.27;2.85;;;;;;;;;;5052917;28;20119;-66
2022/11/25 13:28:25;;;;;;;18.35;3.28;;;;;;;;;;5035728;28;20052;-66
2022/11/25 13:30:52;;;;;;;16.25;3.55;;;;;;;;;;5052473;28;20089;-66
2022/11/25 13:33:18;;;;;;;20.13;3.92;;;;;;;;;;5069365;28;20036;-66
2022/11/25 13:35:45;;;;;;;21.55;3.88;;;;;;;;;;5071119;28;20114;-66
2022/11/25 13:38:29;;;;;;;16.08;2.70;;;;;;;;;;5071313;28;20403;-66
2022/11/25 13:40:56;;;;;;;19.52;3.85;;;;;;;;;;5072232;28;20064;-66
2022/11/25 13:43:22;;;;;;;16.70;3.78;;;;;;;;;;5056891;28;20051;-66
2022/11/25 13:45:49;;;;;;;19.02;3.85;;;;;;;;;;5056823;28;20120;-66
2022/11/25 13:48:18;;;;;;;20.00;4.82;;;;;;;;;;5071619;28;20040;-66
2022/11/25 13:50:44;;;;;;;19.45;3.20;;;;;;;;;;5051263;28;20048;-66
2022/11/25 13:53:20;;;;;;;16.40;3.60;;;;;;;;;;5072303;28;20411;-65
2022/11/25 13:55:49;;;;;;;23.10;3.80;;;;;;;;;;5051120;28;20044;-66
2022/11/25 13:58:15;;;;;;;19.88;3.63;;;;;;;;;;5055375;28;20346;-66
2022/11/25 14:00:43;;;;;;;19.10;2.80;;;;;;;;;;5073921;28;20089;-66
2022/11/25 14:03:19;;;;;;;17.60;3.45;;;;;;;;;;5078739;28;20044;-66
2022/11/25 14:05:52;;;;;;;23.98;5.05;;;;;;;;;;5074048;28;20098;-66
2022/11/25 14:08:32;;;;;;;22.83;3.50;;;;;;;;;;5079206;28;20080;-66
2022/11/25 14:11:01;;;;;;;21.67;3.70;;;;;;;;;;5077115;28;20396;-65
2022/11/25 14:13:45;;;;;;;14.38;3.40;;;;;;;;;;5070545;28;20046;-67
2022/11/25 14:16:24;;;;;;;19.60;3.30;;;;;;;;;;5055369;28;20036;-66
2022/11/25 14:18:54;;;;;;;22.40;3.13;;;;;;;;;;5075758;28;20059;-65
2022/11/25 14:21:39;;;;;;;22.83;4.05;;;;;;;;;;5080802;28;20143;-65
2022/11/25 14:24:11;;;;;;;17.20;3.42;;;;;;;;;;5060935;28;20078;-65
2022/11/25 14:26:39;;;;;;;25.83;3.95;;;;;;;;;;5056168;28;20060;-66
2022/11/25 14:29:11;;;;;;;19.00;3.63;;;;;;;;;;5073753;28;20043;-64
2022/11/25 14:31:44;;;;;;;13.38;3.00;;;;;;;;;;5057509;28;20131;-65
2022/11/25 14:34:17;;;;;;;21.75;2.70;;;;;;;;;;5066595;28;20048;-64
2022/11/25 14:36:45;;;;;;;19.23;3.55;;;;;;;;;;5071677;28;20040;-65
2022/11/25 14:39:19;;;;;;;18.65;3.40;;;;;;;;;;5073597;28;20048;-65
2022/11/25 14:41:54;;;;;;;21.67;3.83;;;;;;;;;;5054327;28;20052;-64
2022/11/25 14:44:23;;;;;;;27.80;4.88;;;;;;;;;;5070920;28;20100;-64